createdAt,value
2018-09-26T00:01:59.677Z,2.00
2018-09-26T00:04:28.533Z,1.93
2018-09-26T00:06:56.883Z,1.50
2018-09-26T00:09:24.488Z,1.07
2018-09-26T00:11:52.079Z,1.50
2018-09-26T00:14:19.691Z,1.70
2018-09-26T00:16:47.316Z,1.60
2018-09-26T00:19:15.013Z,1.57
2018-09-26T00:21:42.567Z,1.63
2018-09-26T00:24:10.187Z,1.40
2018-09-26T00:26:37.790Z,1.47
2018-09-26T00:29:05.397Z,1.73
2018-09-26T00:31:33.028Z,1.20
2018-09-26T00:34:00.621Z,2.13
2018-09-26T00:36:28.223Z,1.77
2018-09-26T00:38:55.835Z,1.40
2018-09-26T00:41:23.403Z,1.33
2018-09-26T00:43:51.026Z,1.60
2018-09-26T00:46:18.667Z,1.40
2018-09-26T00:48:46.249Z,1.30
2018-09-26T00:51:13.877Z,1.40
2018-09-26T00:53:41.456Z,1.30
2018-09-26T00:56:09.069Z,1.50
2018-09-26T00:58:36.650Z,1.63
2018-09-26T01:01:04.237Z,1.90
2018-09-26T01:03:31.879Z,1.07
2018-09-26T01:05:59.494Z,1.20
2018-09-26T01:08:27.087Z,1.40
2018-09-26T01:10:54.678Z,1.60
2018-09-26T01:13:22.268Z,1.10
2018-09-26T01:15:49.881Z,1.50
2018-09-26T01:18:17.558Z,1.53
2018-09-26T01:20:45.150Z,1.53
2018-09-26T01:23:13.039Z,1.63
2018-09-26T01:25:41.412Z,1.60
2018-09-26T01:28:08.993Z,1.43
2018-09-26T01:30:36.676Z,1.40
2018-09-26T01:33:04.267Z,1.67
2018-09-26T01:35:31.876Z,1.33
2018-09-26T01:37:59.471Z,1.30
2018-09-26T01:40:27.263Z,1.40
2018-09-26T01:42:54.897Z,1.63
2018-09-26T01:45:22.766Z,1.33
2018-09-26T01:47:50.350Z,1.50
2018-09-26T01:50:17.925Z,1.43
2018-09-26T01:52:45.640Z,1.60
2018-09-26T01:55:13.253Z,1.40
2018-09-26T01:57:40.894Z,1.03
2018-09-26T02:00:08.558Z,1.53
2018-09-26T02:02:36.220Z,1.57
2018-09-26T02:05:03.925Z,1.40
2018-09-26T02:07:31.531Z,1.43
2018-09-26T02:09:59.078Z,1.40
2018-09-26T02:12:26.668Z,1.50
2018-09-26T02:14:54.248Z,1.10
2018-09-26T02:17:21.867Z,1.17
2018-09-26T02:19:49.575Z,1.60
2018-09-26T02:22:17.519Z,1.73
2018-09-26T02:24:45.178Z,1.63
2018-09-26T02:27:12.783Z,1.17
2018-09-26T02:29:40.356Z,1.73
2018-09-26T02:32:07.917Z,1.10
2018-09-26T02:34:35.577Z,1.70
2018-09-26T02:37:04.294Z,1.87
2018-09-26T02:39:31.911Z,1.03
2018-09-26T02:41:59.532Z,1.37
2018-09-26T02:44:27.120Z,1.30
2018-09-26T02:46:54.717Z,1.10
2018-09-26T02:49:22.303Z,1.40
2018-09-26T02:51:49.956Z,1.20
2018-09-26T02:54:17.541Z,1.27
2018-09-26T02:56:45.110Z,1.20
2018-09-26T02:59:12.697Z,1.37
2018-09-26T03:01:40.356Z,1.37
2018-09-26T03:04:07.987Z,1.37
2018-09-26T03:06:35.584Z,1.37
2018-09-26T03:09:03.956Z,1.23
2018-09-26T03:11:31.529Z,1.23
2018-09-26T03:13:59.104Z,1.40
2018-09-26T03:16:26.692Z,1.30
2018-09-26T03:18:54.243Z,1.20
2018-09-26T03:21:21.878Z,1.37
2018-09-26T03:23:49.472Z,1.20
2018-09-26T03:26:17.079Z,1.43
2018-09-26T03:28:44.715Z,1.80
2018-09-26T03:31:12.348Z,1.40
2018-09-26T03:33:39.985Z,1.20
2018-09-26T03:36:07.489Z,1.30
2018-09-26T03:38:35.172Z,1.17
2018-09-26T03:41:02.745Z,1.60
2018-09-26T03:43:30.311Z,1.40
2018-09-26T03:45:57.914Z,1.37
2018-09-26T03:48:25.492Z,1.40
2018-09-26T03:50:53.097Z,1.60
2018-09-26T03:53:20.743Z,1.47
2018-09-26T03:55:48.323Z,1.57
2018-09-26T03:58:15.900Z,1.40
2018-09-26T04:00:43.459Z,1.70
2018-09-26T04:03:11.055Z,1.43
2018-09-26T04:05:38.671Z,1.40
2018-09-26T04:08:06.245Z,1.60
2018-09-26T04:10:33.837Z,1.70
2018-09-26T04:13:01.508Z,1.90
2018-09-26T04:15:29.163Z,1.53
2018-09-26T04:17:56.715Z,1.70
2018-09-26T04:20:24.389Z,1.40
2018-09-26T04:22:51.954Z,1.50
2018-09-26T04:25:19.783Z,2.73
2018-09-26T04:27:47.599Z,1.53
2018-09-26T04:30:15.128Z,1.53
2018-09-26T04:32:42.750Z,1.70
2018-09-26T04:35:10.247Z,1.60
2018-09-26T04:37:37.845Z,1.70
2018-09-26T04:40:05.400Z,1.47
2018-09-26T04:42:33.020Z,1.70
2018-09-26T04:45:00.624Z,1.27
2018-09-26T04:47:28.212Z,1.43
2018-09-26T04:49:55.931Z,1.37
2018-09-26T04:52:23.651Z,1.40
2018-09-26T04:54:51.210Z,1.20
2018-09-26T04:57:18.817Z,1.20
2018-09-26T04:59:46.408Z,1.53
2018-09-26T05:02:14.178Z,1.37
2018-09-26T05:04:41.746Z,1.40
2018-09-26T05:07:09.360Z,1.50
2018-09-26T05:09:36.997Z,1.60
2018-09-26T05:12:04.685Z,1.87
2018-09-26T05:14:32.396Z,1.87
2018-09-26T05:16:59.973Z,1.30
2018-09-26T05:19:27.584Z,1.50
2018-09-26T05:21:55.258Z,1.30
2018-09-26T05:24:22.896Z,1.50
2018-09-26T05:26:50.469Z,1.50
2018-09-26T05:29:18.037Z,1.40
2018-09-26T05:34:19.981Z,2.13
2018-09-26T05:36:48.016Z,1.93
2018-09-26T05:39:15.589Z,2.60
2018-09-26T05:41:43.244Z,2.40
2018-09-26T05:44:10.910Z,2.17
2018-09-26T05:46:39.606Z,2.20
2018-09-26T05:49:07.489Z,1.80
2018-09-26T05:51:35.300Z,2.10
2018-09-26T05:54:02.869Z,2.17
2018-09-26T05:56:30.461Z,1.93
2018-09-26T05:58:58.090Z,1.97
2018-09-26T06:01:28.532Z,2.23
2018-09-26T06:03:56.204Z,2.60
2018-09-26T06:06:23.783Z,1.80
2018-09-26T06:08:51.376Z,2.47
2018-09-26T06:11:19.011Z,1.63
2018-09-26T06:13:46.629Z,1.90
2018-09-26T06:16:14.240Z,2.10
2018-09-26T06:18:41.863Z,1.50
2018-09-26T06:21:09.503Z,2.00
2018-09-26T06:23:37.485Z,2.20
2018-09-26T06:26:05.175Z,2.37
2018-09-26T06:28:32.765Z,3.03
2018-09-26T06:31:00.425Z,2.23
2018-09-26T06:33:28.032Z,2.17
2018-09-26T06:35:55.637Z,3.00
2018-09-26T06:38:23.296Z,2.07
2018-09-26T06:40:50.878Z,2.40
2018-09-26T06:43:18.447Z,2.00
2018-09-26T06:45:46.026Z,2.20
2018-09-26T06:48:13.621Z,1.97
2018-09-26T06:50:41.204Z,2.23
2018-09-26T06:53:08.808Z,1.83
2018-09-26T06:55:36.380Z,2.27
2018-09-26T06:58:03.998Z,2.53
2018-09-26T07:00:31.579Z,1.97
2018-09-26T07:02:59.197Z,2.50
2018-09-26T07:05:26.855Z,2.10
2018-09-26T07:07:54.467Z,1.87
2018-09-26T07:10:22.084Z,2.10
2018-09-26T07:12:49.689Z,2.43
2018-09-26T07:15:17.581Z,1.70
2018-09-26T07:17:45.201Z,2.77
2018-09-26T07:20:12.761Z,1.67
2018-09-26T07:22:40.486Z,2.20
2018-09-26T07:25:08.042Z,1.70
2018-09-26T07:27:35.728Z,2.20
2018-09-26T07:30:03.309Z,1.63
2018-09-26T07:32:30.888Z,2.10
2018-09-26T07:34:58.499Z,2.53
2018-09-26T07:37:26.127Z,2.50
2018-09-26T07:39:53.766Z,2.03
2018-09-26T07:42:21.365Z,2.10
2018-09-26T07:44:49.160Z,2.00
2018-09-26T07:47:16.778Z,2.07
2018-09-26T07:49:44.405Z,2.00
2018-09-26T07:52:12.077Z,1.70
2018-09-26T07:54:39.668Z,1.93
2018-09-26T07:57:07.277Z,2.50
2018-09-26T07:59:34.903Z,2.07
2018-09-26T08:02:02.507Z,2.20
2018-09-26T08:04:30.147Z,1.80
2018-09-26T08:06:57.749Z,1.80
2018-09-26T08:09:25.335Z,1.97
2018-09-26T08:11:52.958Z,1.93
2018-09-26T08:14:20.583Z,1.97
2018-09-26T08:16:48.167Z,1.70
2018-09-26T08:19:15.815Z,1.60
2018-09-26T08:21:43.393Z,1.80
2018-09-26T08:24:11.193Z,1.70
2018-09-26T08:26:38.719Z,1.73
2018-09-26T08:29:06.312Z,2.10
2018-09-26T08:31:33.944Z,2.20
2018-09-26T08:34:01.596Z,1.90
2018-09-26T08:36:29.381Z,2.00
2018-09-26T08:38:56.963Z,1.93
2018-09-26T08:41:24.591Z,2.03
2018-09-26T08:43:52.291Z,2.17
2018-09-26T08:46:19.828Z,2.27
2018-09-26T08:48:47.424Z,1.80
2018-09-26T08:51:15.003Z,1.93
2018-09-26T08:53:42.705Z,1.60
2018-09-26T08:56:10.278Z,2.23
2018-09-26T09:01:17.735Z,1.80
2018-09-26T09:03:45.452Z,1.73
2018-09-26T09:06:13.079Z,1.93
2018-09-26T09:08:40.647Z,2.07
2018-09-26T09:11:08.300Z,1.60
2018-09-26T09:13:35.925Z,2.30
2018-09-26T09:16:03.487Z,1.83
2018-09-26T09:18:31.103Z,1.83
2018-09-26T09:20:58.703Z,1.60
2018-09-26T09:23:26.320Z,2.17
2018-09-26T09:25:54.004Z,2.10
2018-09-26T09:28:21.649Z,1.40
2018-09-26T09:30:49.240Z,1.93
2018-09-26T09:33:16.851Z,1.87
2018-09-26T09:35:44.432Z,1.70
2018-09-26T09:38:12.039Z,1.50
2018-09-26T09:40:39.705Z,1.80
2018-09-26T09:43:07.330Z,1.77
2018-09-26T09:45:35.058Z,1.90
2018-09-26T09:48:02.677Z,1.67
2018-09-26T09:50:30.349Z,1.70
2018-09-26T09:52:57.936Z,1.90
2018-09-26T09:55:25.592Z,1.63
2018-09-26T09:57:53.195Z,2.03
2018-09-26T10:00:25.411Z,2.07
2018-09-26T10:02:53.138Z,2.00
2018-09-26T10:05:20.693Z,1.90
2018-09-26T10:07:48.304Z,1.93
2018-09-26T10:10:15.916Z,1.80
2018-09-26T10:12:43.512Z,1.70
2018-09-26T10:15:11.195Z,1.50
2018-09-26T10:17:38.946Z,2.07
2018-09-26T10:20:06.683Z,1.93
2018-09-26T10:22:34.429Z,2.20
2018-09-26T10:25:02.257Z,2.10
2018-09-26T10:27:36.588Z,1.90
2018-09-26T10:30:04.618Z,2.20
2018-09-26T10:32:32.251Z,2.07
2018-09-26T10:34:59.958Z,2.20
2018-09-26T10:37:27.724Z,2.97
2018-09-26T10:39:55.396Z,2.47
2018-09-26T10:42:23.152Z,2.83
2018-09-26T10:44:50.756Z,2.53
2018-09-26T10:47:18.465Z,2.87
2018-09-26T10:49:46.032Z,2.50
2018-09-26T10:52:13.674Z,3.20
2018-09-26T10:54:41.290Z,3.00
2018-09-26T10:57:08.928Z,2.87
2018-09-26T10:59:36.535Z,3.10
2018-09-26T11:02:04.168Z,2.70
2018-09-26T11:04:31.813Z,2.50
2018-09-26T11:06:59.433Z,2.70
2018-09-26T11:09:27.050Z,2.90
2018-09-26T11:11:54.633Z,2.17
2018-09-26T11:14:22.340Z,3.10
2018-09-26T11:16:49.952Z,2.63
2018-09-26T11:19:17.543Z,2.50
2018-09-26T11:21:45.185Z,3.00
2018-09-26T11:24:13.105Z,2.73
2018-09-26T11:26:40.836Z,2.63
2018-09-26T11:29:08.419Z,2.77
2018-09-26T11:31:37.236Z,2.50
2018-09-26T11:34:04.926Z,2.70
2018-09-26T11:36:32.569Z,2.87
2018-09-26T11:39:00.231Z,3.47
2018-09-26T11:41:27.892Z,2.37
2018-09-26T11:43:55.512Z,2.73
2018-09-26T11:46:23.659Z,2.50
2018-09-26T11:48:51.234Z,2.83
2018-09-26T11:51:19.103Z,2.40
2018-09-26T11:53:46.733Z,3.80
2018-09-26T11:56:14.849Z,3.00
2018-09-26T11:58:42.424Z,2.40
2018-09-26T12:01:10.008Z,2.60
2018-09-26T12:03:37.620Z,2.20
2018-09-26T12:06:05.260Z,2.60
2018-09-26T12:08:32.881Z,2.60
2018-09-26T12:11:00.536Z,3.10
2018-09-26T12:13:28.167Z,2.40
2018-09-26T12:15:55.812Z,3.13
2018-09-26T12:18:23.488Z,2.30
2018-09-26T12:20:51.007Z,2.70
2018-09-26T12:23:18.616Z,2.67
2018-09-26T12:25:46.239Z,2.80
2018-09-26T12:28:13.943Z,2.37
2018-09-26T12:30:41.560Z,2.43
2018-09-26T12:33:09.182Z,2.33
2018-09-26T12:35:36.802Z,2.30
2018-09-26T12:38:04.431Z,2.47
2018-09-26T12:40:32.077Z,2.50
2018-09-26T12:42:59.715Z,1.97
2018-09-26T12:45:28.327Z,2.43
2018-09-26T12:47:55.905Z,2.57
2018-09-26T12:50:23.543Z,2.37
2018-09-26T12:52:51.140Z,2.03
2018-09-26T12:55:18.756Z,2.10
2018-09-26T12:57:46.400Z,1.93
2018-09-26T13:00:14.102Z,2.57
2018-09-26T13:02:41.758Z,2.47
2018-09-26T13:05:09.341Z,2.43
2018-09-26T13:07:37.260Z,2.90
2018-09-26T13:10:04.831Z,2.83
2018-09-26T13:12:32.430Z,2.40
2018-09-26T13:15:00.056Z,3.53
2018-09-26T13:17:27.717Z,2.80
2018-09-26T13:19:55.417Z,2.83
2018-09-26T13:22:23.133Z,2.33
2018-09-26T13:24:50.709Z,2.73
2018-09-26T13:27:18.319Z,3.13
2018-09-26T13:29:45.943Z,2.53
2018-09-26T13:32:13.588Z,2.80
2018-09-26T13:34:41.207Z,2.00
2018-09-26T13:37:08.811Z,2.87
2018-09-26T13:39:36.462Z,2.80
2018-09-26T13:42:04.119Z,2.77
2018-09-26T13:44:31.755Z,2.33
2018-09-26T13:46:59.372Z,2.50
2018-09-26T13:49:27.012Z,2.93
2018-09-26T13:51:54.636Z,2.77
2018-09-26T13:54:22.281Z,2.50
2018-09-26T13:56:49.913Z,2.80
2018-09-26T13:59:17.762Z,2.83
2018-09-26T14:01:45.468Z,2.30
2018-09-26T14:04:13.124Z,2.63
2018-09-26T14:06:40.893Z,2.47
2018-09-26T14:09:08.591Z,2.40
2018-09-26T14:11:36.269Z,2.40
2018-09-26T14:14:03.902Z,2.57
2018-09-26T14:16:31.601Z,2.80
2018-09-26T14:18:59.192Z,2.47
2018-09-26T14:21:26.775Z,2.60
2018-09-26T14:23:54.434Z,3.30
2018-09-26T14:26:22.175Z,2.10
2018-09-26T14:28:49.779Z,2.60
2018-09-26T14:31:17.441Z,2.90
2018-09-26T14:33:45.127Z,3.90
2018-09-26T14:36:12.735Z,3.93
2018-09-26T14:38:40.437Z,3.80
2018-09-26T14:41:08.124Z,3.70
2018-09-26T14:43:35.848Z,3.70
2018-09-26T14:46:03.681Z,2.60
2018-09-26T14:48:31.296Z,3.40
2018-09-26T14:50:58.925Z,3.40
2018-09-26T14:53:26.651Z,3.03
2018-09-26T14:55:54.242Z,3.23
2018-09-26T14:58:21.966Z,2.83
2018-09-26T15:00:49.524Z,3.33
2018-09-26T15:03:17.150Z,3.43
2018-09-26T15:05:44.793Z,3.33
2018-09-26T15:08:12.409Z,2.20
2018-09-26T15:10:40.068Z,2.33
2018-09-26T15:13:07.656Z,3.50
2018-09-26T15:15:35.308Z,3.10
2018-09-26T15:18:02.956Z,3.03
2018-09-26T15:20:30.581Z,2.67
2018-09-26T15:22:58.239Z,2.13
2018-09-26T15:25:25.821Z,2.80
2018-09-26T15:27:53.439Z,2.60
2018-09-26T15:30:21.063Z,2.83
2018-09-26T15:32:48.724Z,2.20
2018-09-26T15:35:16.436Z,2.37
2018-09-26T15:37:44.035Z,2.60
2018-09-26T15:40:11.639Z,2.57
2018-09-26T15:42:39.245Z,3.00
2018-09-26T15:45:07.144Z,3.07
2018-09-26T15:47:34.877Z,3.20
2018-09-26T15:50:02.500Z,2.70
2018-09-26T15:52:30.096Z,2.53
2018-09-26T15:54:58.159Z,2.50
2018-09-26T15:57:25.811Z,2.77
2018-09-26T15:59:53.457Z,2.77
2018-09-26T16:02:21.129Z,2.63
2018-09-26T16:04:48.662Z,2.73
2018-09-26T16:07:16.339Z,2.83
2018-09-26T16:09:43.941Z,3.37
2018-09-26T16:12:11.603Z,2.43
2018-09-26T16:14:39.196Z,2.67
2018-09-26T16:17:06.781Z,3.00
2018-09-26T16:19:34.410Z,3.10
2018-09-26T16:22:02.004Z,2.87
2018-09-26T16:27:04.006Z,3.27
2018-09-26T16:29:31.641Z,2.50
2018-09-26T16:31:59.309Z,2.23
2018-09-26T16:34:27.026Z,2.50
2018-09-26T16:36:54.689Z,2.40
2018-09-26T16:39:22.475Z,2.37
2018-09-26T16:41:49.987Z,2.20
2018-09-26T16:44:17.632Z,2.60
2018-09-26T16:46:45.332Z,2.33
2018-09-26T16:49:12.950Z,2.60
2018-09-26T16:51:40.647Z,2.20
2018-09-26T16:54:08.426Z,2.40
2018-09-26T16:56:36.042Z,2.27
2018-09-26T16:59:03.734Z,2.80
2018-09-26T17:01:31.369Z,2.67
2018-09-26T17:03:58.957Z,3.10
2018-09-26T17:06:26.579Z,2.87
2018-09-26T17:08:54.149Z,2.67
2018-09-26T17:11:21.957Z,2.20
2018-09-26T17:13:49.540Z,2.80
2018-09-26T17:16:17.162Z,2.53
2018-09-26T17:18:44.794Z,2.50
2018-09-26T17:21:12.412Z,3.70
2018-09-26T17:23:40.024Z,2.23
2018-09-26T17:26:07.763Z,3.13
2018-09-26T17:28:35.402Z,2.80
2018-09-26T17:31:02.999Z,2.77
2018-09-26T17:33:30.939Z,2.67
2018-09-26T17:35:58.605Z,2.10
2018-09-26T17:38:26.245Z,2.00
2018-09-26T17:40:53.921Z,2.43
2018-09-26T17:43:21.655Z,2.47
2018-09-26T17:45:49.247Z,2.23
2018-09-26T17:48:16.840Z,2.70
2018-09-26T17:50:44.471Z,2.40
2018-09-26T17:53:12.097Z,2.70
2018-09-26T17:55:39.772Z,2.47
2018-09-26T17:58:07.451Z,2.67
2018-09-26T18:00:35.071Z,2.40
2018-09-26T18:03:02.671Z,3.20
2018-09-26T18:05:30.364Z,2.47
2018-09-26T18:07:58.264Z,2.47
2018-09-26T18:10:25.848Z,2.60
2018-09-26T18:12:53.492Z,2.37
2018-09-26T18:15:21.164Z,2.40
2018-09-26T18:17:48.848Z,2.60
2018-09-26T18:20:16.553Z,3.20
2018-09-26T18:22:44.194Z,3.10
2018-09-26T18:25:12.129Z,3.33
2018-09-26T18:27:39.771Z,2.93
2018-09-26T18:30:07.472Z,3.10
2018-09-26T18:32:35.070Z,2.97
2018-09-26T18:35:02.711Z,2.23
2018-09-26T18:37:30.353Z,2.60
2018-09-26T18:39:58.028Z,2.60
2018-09-26T18:42:25.631Z,2.60
2018-09-26T18:44:53.345Z,2.80
2018-09-26T18:47:20.918Z,2.60
2018-09-26T18:49:48.672Z,2.53
2018-09-26T18:52:16.260Z,2.23
2018-09-26T18:54:43.839Z,2.30
2018-09-26T18:57:11.525Z,2.30
2018-09-26T18:59:39.095Z,2.77
2018-09-26T19:02:06.735Z,2.60
2018-09-26T19:04:34.434Z,2.70
2018-09-26T19:07:02.121Z,2.87
2018-09-26T19:09:29.732Z,2.17
2018-09-26T19:11:57.385Z,2.77
2018-09-26T19:14:25.011Z,2.40
2018-09-26T19:16:52.609Z,2.60
2018-09-26T19:19:20.216Z,3.20
2018-09-26T19:21:47.819Z,2.40
2018-09-26T19:24:15.424Z,2.80
2018-09-26T19:26:43.057Z,2.57
2018-09-26T19:29:10.688Z,2.80
2018-09-26T19:31:39.240Z,3.40
2018-09-26T19:34:06.875Z,2.83
2018-09-26T19:36:34.468Z,2.53
2018-09-26T19:39:02.268Z,3.30
2018-09-26T19:41:29.839Z,2.87
2018-09-26T19:43:57.603Z,2.57
2018-09-26T19:46:25.124Z,2.30
2018-09-26T19:48:52.745Z,2.77
2018-09-26T19:51:20.407Z,2.30
2018-09-26T19:53:48.047Z,2.30
2018-09-26T19:56:15.733Z,2.43
2018-09-26T19:58:43.259Z,3.00
2018-09-26T20:01:10.868Z,2.63
2018-09-26T20:03:38.420Z,2.00
2018-09-26T20:06:06.081Z,2.37
2018-09-26T20:08:33.657Z,3.20
2018-09-26T20:11:02.096Z,2.50
2018-09-26T20:13:29.692Z,2.87
2018-09-26T20:15:57.344Z,2.30
2018-09-26T20:18:24.917Z,2.00
2018-09-26T20:20:52.547Z,2.60
2018-09-26T20:23:20.245Z,2.53
2018-09-26T20:25:47.790Z,2.60
2018-09-26T20:28:15.688Z,2.17
2018-09-26T20:30:43.272Z,3.00
2018-09-26T20:33:11.034Z,3.07
2018-09-26T20:35:38.652Z,2.13
2018-09-26T20:38:06.183Z,3.53
2018-09-26T20:40:33.768Z,2.60
2018-09-26T20:43:01.367Z,2.10
2018-09-26T20:45:29.010Z,2.67
2018-09-26T20:47:56.773Z,2.57
2018-09-26T20:50:24.423Z,2.57
2018-09-26T20:52:52.206Z,2.23
2018-09-26T20:55:19.787Z,1.90
2018-09-26T20:57:47.420Z,2.10
2018-09-26T21:00:14.994Z,2.23
2018-09-26T21:02:42.582Z,2.37
2018-09-26T21:05:10.421Z,2.47
2018-09-26T21:07:38.012Z,2.33
2018-09-26T21:10:05.682Z,2.40
2018-09-26T21:12:33.264Z,3.00
2018-09-26T21:15:00.863Z,2.60
2018-09-26T21:17:28.493Z,2.67
2018-09-26T21:19:56.119Z,3.17
2018-09-26T21:22:23.714Z,1.90
2018-09-26T21:24:51.299Z,2.70
2018-09-26T21:27:18.965Z,2.13
2018-09-26T21:29:46.520Z,2.63
2018-09-26T21:32:14.456Z,2.20
2018-09-26T21:34:42.037Z,2.43
2018-09-26T21:37:09.626Z,2.83
2018-09-26T21:39:37.251Z,2.80
2018-09-26T21:42:04.825Z,2.13
2018-09-26T21:44:32.420Z,2.13
2018-09-26T21:46:59.997Z,2.33
2018-09-26T21:49:27.625Z,2.77
2018-09-26T21:51:55.213Z,2.70
2018-09-26T21:54:22.884Z,2.30
2018-09-26T21:56:50.520Z,2.63
2018-09-26T21:59:18.154Z,1.90
2018-09-26T22:01:45.747Z,2.83
2018-09-26T22:04:13.382Z,2.13
2018-09-26T22:06:41.041Z,2.53
2018-09-26T22:09:09.184Z,2.37
2018-09-26T22:11:36.768Z,2.17
2018-09-26T22:14:04.394Z,2.73
2018-09-26T22:16:31.994Z,3.83
2018-09-26T22:18:59.560Z,3.03
2018-09-26T22:21:27.188Z,2.33
2018-09-26T22:23:54.749Z,3.13
2018-09-26T22:26:22.390Z,3.20
2018-09-26T22:28:50.040Z,2.80
2018-09-26T22:31:17.750Z,2.83
2018-09-26T22:33:45.404Z,2.90
2018-09-26T22:36:13.007Z,2.23
2018-09-26T22:38:40.676Z,2.50
2018-09-26T22:41:08.288Z,3.10
2018-09-26T22:43:35.885Z,2.63
2018-09-26T22:46:03.912Z,3.07
2018-09-26T22:48:31.507Z,2.70
2018-09-26T22:50:59.092Z,2.63
2018-09-26T22:53:26.783Z,2.33
2018-09-26T22:55:54.382Z,2.23
2018-09-26T22:58:21.977Z,2.40
2018-09-26T23:03:23.954Z,3.43
2018-09-26T23:05:51.615Z,2.20
2018-09-26T23:08:19.216Z,2.97
2018-09-26T23:10:46.884Z,2.10
2018-09-26T23:13:14.464Z,2.43
2018-09-26T23:15:42.096Z,2.63
2018-09-26T23:18:09.661Z,2.30
2018-09-26T23:20:37.268Z,2.13
2018-09-26T23:23:04.835Z,2.30
2018-09-26T23:25:32.473Z,2.37
2018-09-26T23:28:00.085Z,1.93
2018-09-26T23:30:27.652Z,3.00
2018-09-26T23:32:55.264Z,2.43
2018-09-26T23:35:22.868Z,2.70
2018-09-26T23:37:50.458Z,2.50
2018-09-26T23:40:18.132Z,2.07
2018-09-26T23:42:45.774Z,2.07
2018-09-26T23:45:13.428Z,2.30
2018-09-26T23:47:41.046Z,2.70
2018-09-26T23:50:08.721Z,2.27
2018-09-26T23:52:36.318Z,2.70
2018-09-26T23:55:03.944Z,2.17
2018-09-26T23:57:31.588Z,2.57
2018-09-26T23:59:59.265Z,2.30
